Time;durP1;ratioP1;P1;durP2;ratioP2;P2;SDS_P1;SDS_P2;PMS_P1;PMS_P2;Temp;Humidity;BMP_temperature;BMP_pressure;BME280_temperature;BME280_humidity;BME280_pressure;Samples;Min_cycle;Max_cycle;Signal;HPM_P1;HPM_P2
2024/04/01 00:02:25;;;;;;;;;;;17.80;65.60;;;;;;5002232;28;1092;-71
2024/04/01 00:04:50;;;;;;;;;;;17.80;65.70;;;;;;5018486;28;1314;-71
2024/04/01 00:07:15;;;;;;;;;;;17.80;65.70;;;;;;5000878;28;1597;-71
2024/04/01 00:09:41;;;;;;;;;;;17.70;65.60;;;;;;5030827;28;1650;-71
2024/04/01 00:12:07;;;;;;;;;;;17.80;65.70;;;;;;5001269;28;1583;-70
2024/04/01 00:14:33;;;;;;;;;;;17.80;65.70;;;;;;5000220;28;1906;-70
2024/04/01 00:16:58;;;;;;;;;;;17.80;65.70;;;;;;4999308;28;1613;-70
2024/04/01 00:19:24;;;;;;;;;;;17.70;65.60;;;;;;5002014;28;1540;-70
2024/04/01 00:21:49;;;;;;;;;;;17.80;65.70;;;;;;5001239;28;1642;-69
2024/04/01 00:24:15;;;;;;;;;;;17.80;65.70;;;;;;5001325;28;1532;-70
2024/04/01 00:26:40;;;;;;;;;;;17.70;65.70;;;;;;5001964;28;1347;-70
2024/04/01 00:29:06;;;;;;;;;;;17.70;65.70;;;;;;5032491;28;1476;-70
2024/04/01 00:31:31;;;;;;;;;;;17.80;65.70;;;;;;5001445;28;1187;-70
2024/04/01 00:33:56;;;;;;;;;;;17.70;65.60;;;;;;5033723;28;1553;-70
2024/04/01 00:36:22;;;;;;;;;;;17.70;65.60;;;;;;5001805;28;1915;-69
2024/04/01 00:38:50;;;;;;;;;;;17.70;65.70;;;;;;4997733;28;1406;-69
2024/04/01 00:41:16;;;;;;;;;;;17.80;65.70;;;;;;5032694;28;1750;-71
2024/04/01 00:43:41;;;;;;;;;;;17.80;65.70;;;;;;4997944;28;1295;-72
2024/04/01 00:46:07;;;;;;;;;;;17.70;65.60;;;;;;5019049;28;1359;-72
2024/04/01 00:48:32;;;;;;;;;;;17.70;65.60;;;;;;5032508;28;1218;-72
2024/04/01 00:50:58;;;;;;;;;;;17.70;65.60;;;;;;5030897;28;1347;-71
2024/04/01 00:53:23;;;;;;;;;;;17.70;65.60;;;;;;5032885;28;1333;-72
2024/04/01 00:55:48;;;;;;;;;;;17.80;65.70;;;;;;5031601;28;1905;-72
2024/04/01 00:58:14;;;;;;;;;;;17.80;65.70;;;;;;5029508;28;1235;-72
2024/04/01 01:00:40;;;;;;;;;;;17.70;65.60;;;;;;5002872;28;1180;-72
2024/04/01 01:03:07;;;;;;;;;;;17.80;65.70;;;;;;5000500;28;848;-72
2024/04/01 01:05:32;;;;;;;;;;;17.80;65.70;;;;;;5033148;28;1331;-71
2024/04/01 01:07:58;;;;;;;;;;;17.70;65.70;;;;;;5031323;28;1277;-71
2024/04/01 01:10:24;;;;;;;;;;;17.80;65.70;;;;;;4995449;28;1567;-71
2024/04/01 01:12:49;;;;;;;;;;;17.70;65.60;;;;;;5033461;28;1479;-71
2024/04/01 01:15:15;;;;;;;;;;;17.70;65.70;;;;;;5002071;28;1981;-71
2024/04/01 01:17:40;;;;;;;;;;;17.70;65.70;;;;;;5000185;28;1552;-71
2024/04/01 01:20:12;;;;;;;;;;;17.80;65.70;;;;;;5000541;28;1254;-70
2024/04/01 01:22:38;;;;;;;;;;;17.80;65.70;;;;;;5000511;28;1204;-71
2024/04/01 01:25:07;;;;;;;;;;;17.80;65.70;;;;;;4996136;28;1541;-70
2024/04/01 01:27:35;;;;;;;;;;;17.70;65.70;;;;;;5000419;28;1359;-70
2024/04/01 01:30:02;;;;;;;;;;;17.70;65.70;;;;;;5030779;28;1538;-70
2024/04/01 01:32:28;;;;;;;;;;;17.70;65.70;;;;;;4999125;28;1327;-71
2024/04/01 01:34:53;;;;;;;;;;;17.80;65.70;;;;;;5002181;28;1977;-68
2024/04/01 01:37:19;;;;;;;;;;;17.70;65.70;;;;;;5000569;28;1349;-69
2024/04/01 01:39:45;;;;;;;;;;;17.70;65.70;;;;;;5031985;28;1288;-70
2024/04/01 01:42:10;;;;;;;;;;;17.70;65.70;;;;;;4996943;28;1489;-69
2024/04/01 01:44:36;;;;;;;;;;;17.70;65.70;;;;;;5030084;28;1521;-69
2024/04/01 01:47:01;;;;;;;;;;;17.70;65.70;;;;;;5034370;28;1578;-71
2024/04/01 01:49:27;;;;;;;;;;;17.70;65.70;;;;;;5013279;28;1571;-71
2024/04/01 01:51:52;;;;;;;;;;;17.80;65.70;;;;;;4998472;28;1636;-71
2024/04/01 01:54:17;;;;;;;;;;;17.80;65.70;;;;;;5031397;28;1972;-71
2024/04/01 01:56:43;;;;;;;;;;;17.70;65.70;;;;;;5033215;28;1604;-71
2024/04/01 01:59:08;;;;;;;;;;;17.70;65.70;;;;;;4999843;28;1259;-71
2024/04/01 02:01:34;;;;;;;;;;;17.70;65.70;;;;;;4998753;28;1226;-71
2024/04/01 02:04:00;;;;;;;;;;;17.70;65.70;;;;;;4997525;28;1460;-72
2024/04/01 02:06:25;;;;;;;;;;;17.70;65.70;;;;;;4999790;28;1480;-71
2024/04/01 02:08:51;;;;;;;;;;;17.70;65.80;;;;;;5002380;28;1344;-71
2024/04/01 02:11:16;;;;;;;;;;;17.70;65.70;;;;;;5029382;28;1587;-71
2024/04/01 02:13:42;;;;;;;;;;;17.70;65.70;;;;;;5001648;28;1101;-70
2024/04/01 02:16:08;;;;;;;;;;;17.70;65.70;;;;;;5029962;28;1977;-70
2024/04/01 02:18:34;;;;;;;;;;;17.70;65.80;;;;;;5028229;28;1493;-71
2024/04/01 02:20:59;;;;;;;;;;;17.70;65.70;;;;;;5000641;28;1315;-71
2024/04/01 02:23:31;;;;;;;;;;;17.70;65.70;;;;;;4990208;28;1491;-69
2024/04/01 02:26:03;;;;;;;;;;;17.70;65.70;;;;;;4998544;28;1388;-71
2024/04/01 02:28:29;;;;;;;;;;;17.70;65.80;;;;;;5004029;28;1351;-70
2024/04/01 02:30:54;;;;;;;;;;;17.80;65.80;;;;;;4991170;28;1291;-71
2024/04/01 02:33:20;;;;;;;;;;;17.70;65.70;;;;;;5036171;28;1560;-71
2024/04/01 02:35:45;;;;;;;;;;;17.70;65.70;;;;;;5033454;28;1969;-71
2024/04/01 02:38:11;;;;;;;;;;;17.80;65.80;;;;;;5035063;28;1371;-71
2024/04/01 02:40:36;;;;;;;;;;;17.70;65.70;;;;;;5038379;28;955;-71
2024/04/01 02:43:03;;;;;;;;;;;17.70;65.70;;;;;;5040598;28;1542;-71
2024/04/01 02:45:29;;;;;;;;;;;17.70;65.70;;;;;;5004649;28;1371;-71
2024/04/01 02:47:54;;;;;;;;;;;17.70;65.70;;;;;;5041300;28;1254;-71
2024/04/01 02:50:20;;;;;;;;;;;17.70;65.70;;;;;;5041106;28;998;-71
2024/04/01 02:52:47;;;;;;;;;;;17.70;65.70;;;;;;5008545;28;1352;-71
2024/04/01 02:55:13;;;;;;;;;;;17.70;65.70;;;;;;5038610;28;1957;-71
2024/04/01 02:57:39;;;;;;;;;;;17.70;65.70;;;;;;5009356;28;971;-71
2024/04/01 03:00:05;;;;;;;;;;;17.70;65.70;;;;;;5007418;28;903;-71
2024/04/01 03:02:33;;;;;;;;;;;17.70;65.80;;;;;;5034880;28;1384;-71
2024/04/01 03:04:58;;;;;;;;;;;17.70;65.80;;;;;;5006658;28;1269;-71
2024/04/01 03:07:24;;;;;;;;;;;17.70;65.70;;;;;;5006956;28;991;-71
2024/04/01 03:09:53;;;;;;;;;;;17.70;65.70;;;;;;5041947;28;1203;-71
2024/04/01 03:12:19;;;;;;;;;;;17.70;65.80;;;;;;5017708;28;1357;-71
2024/04/01 03:14:47;;;;;;;;;;;17.70;65.80;;;;;;5005175;28;1895;-71
2024/04/01 03:17:16;;;;;;;;;;;17.70;65.80;;;;;;5000537;28;1371;-71
2024/04/01 03:19:41;;;;;;;;;;;17.70;65.80;;;;;;5038940;28;1684;-71
2024/04/01 03:22:07;;;;;;;;;;;17.70;65.70;;;;;;5006261;28;1003;-71
2024/04/01 03:24:32;;;;;;;;;;;17.70;65.70;;;;;;5009755;28;1239;-71
2024/04/01 03:26:57;;;;;;;;;;;17.70;65.80;;;;;;5033546;28;1397;-71
2024/04/01 03:29:23;;;;;;;;;;;17.70;65.80;;;;;;5012146;28;1515;-71
2024/04/01 03:31:48;;;;;;;;;;;17.70;65.80;;;;;;5032355;28;1441;-71
2024/04/01 03:34:14;;;;;;;;;;;17.70;65.70;;;;;;5012028;28;1911;-71
2024/04/01 03:36:39;;;;;;;;;;;17.70;65.80;;;;;;5051534;28;1284;-71
2024/04/01 03:39:05;;;;;;;;;;;17.70;65.80;;;;;;5005315;28;1450;-71
2024/04/01 03:41:31;;;;;;;;;;;17.70;65.70;;;;;;5000826;28;1139;-71
2024/04/01 03:43:56;;;;;;;;;;;17.70;65.80;;;;;;5034757;28;892;-72
2024/04/01 03:46:21;;;;;;;;;;;17.70;65.80;;;;;;5002622;28;1338;-72
2024/04/01 03:48:47;;;;;;;;;;;17.70;65.80;;;;;;5003408;28;1363;-72
2024/04/01 03:51:12;;;;;;;;;;;17.70;65.80;;;;;;4999628;28;1078;-71
2024/04/01 03:53:38;;;;;;;;;;;17.70;65.80;;;;;;5002302;28;1527;-71
2024/04/01 03:56:03;;;;;;;;;;;17.70;65.80;;;;;;5001949;28;1903;-71
2024/04/01 03:58:29;;;;;;;;;;;17.70;65.80;;;;;;5003901;28;1411;-71
2024/04/01 04:00:54;;;;;;;;;;;17.70;66.50;;;;;;4998155;28;1444;-71
2024/04/01 04:03:20;;;;;;;;;;;17.70;65.80;;;;;;5032206;28;1727;-72
2024/04/01 04:05:46;;;;;;;;;;;17.70;65.80;;;;;;4998584;28;1581;-72
2024/04/01 04:08:11;;;;;;;;;;;17.70;65.80;;;;;;5031263;28;1273;-72
2024/04/01 04:10:36;;;;;;;;;;;17.70;65.80;;;;;;4998393;28;1160;-71
2024/04/01 04:13:02;;;;;;;;;;;17.80;65.80;;;;;;5000133;28;1347;-71
2024/04/01 04:15:27;;;;;;;;;;;17.80;65.80;;;;;;5031887;28;1906;-71
2024/04/01 04:17:53;;;;;;;;;;;17.80;65.70;;;;;;5001323;28;1069;-71
2024/04/01 04:20:18;;;;;;;;;;;17.80;65.60;;;;;;5032249;28;1330;-72
2024/04/01 04:22:45;;;;;;;;;;;17.80;65.50;;;;;;5020904;28;1594;-71
2024/04/01 04:25:10;;;;;;;;;;;17.90;65.50;;;;;;5003265;28;1495;-71
2024/04/01 04:27:36;;;;;;;;;;;17.90;65.40;;;;;;5002873;28;1326;-71
2024/04/01 04:30:01;;;;;;;;;;;17.90;65.30;;;;;;5002124;28;1365;-72
2024/04/01 04:32:27;;;;;;;;;;;17.90;65.20;;;;;;5034786;28;1329;-71
2024/04/01 04:34:52;;;;;;;;;;;18.00;65.10;;;;;;5004072;28;1965;-71
2024/04/01 04:37:17;;;;;;;;;;;18.00;65.00;;;;;;5000669;28;1589;-71
2024/04/01 04:39:43;;;;;;;;;;;18.00;65.00;;;;;;5002302;28;1176;-71
2024/04/01 04:42:08;;;;;;;;;;;18.00;64.80;;;;;;5000897;28;1198;-71
2024/04/01 04:44:34;;;;;;;;;;;18.10;64.80;;;;;;5001303;28;1263;-71
2024/04/01 04:46:59;;;;;;;;;;;18.00;64.70;;;;;;4999848;28;1560;-71
2024/04/01 04:49:25;;;;;;;;;;;18.10;64.70;;;;;;5017638;28;1536;-71
2024/04/01 04:51:50;;;;;;;;;;;18.10;64.60;;;;;;5000974;28;1464;-71
2024/04/01 04:54:16;;;;;;;;;;;18.10;64.60;;;;;;5033595;28;1902;-71
2024/04/01 04:56:42;;;;;;;;;;;18.10;64.50;;;;;;5021601;28;1427;-71
2024/04/01 04:59:10;;;;;;;;;;;18.10;64.50;;;;;;5035055;28;1626;-71
2024/04/01 05:01:36;;;;;;;;;;;18.10;64.40;;;;;;5034275;28;1372;-71
2024/04/01 05:04:01;;;;;;;;;;;18.10;64.40;;;;;;5021090;28;1250;-71
2024/04/01 05:06:26;;;;;;;;;;;18.20;64.40;;;;;;5005093;28;1419;-71
2024/04/01 05:08:53;;;;;;;;;;;18.20;64.40;;;;;;5005393;28;943;-71
2024/04/01 05:11:18;;;;;;;;;;;18.20;64.30;;;;;;5009361;28;1338;-71
2024/04/01 05:13:44;;;;;;;;;;;18.20;64.30;;;;;;5035819;28;1144;-71
2024/04/01 05:16:09;;;;;;;;;;;18.20;64.30;;;;;;5004185;28;1907;-71
2024/04/01 05:18:35;;;;;;;;;;;18.20;64.20;;;;;;5032526;28;1277;-71
2024/04/01 05:21:01;;;;;;;;;;;18.20;64.20;;;;;;5030054;28;1285;-71
2024/04/01 05:23:26;;;;;;;;;;;18.20;64.20;;;;;;5030573;28;1256;-72
2024/04/01 05:25:51;;;;;;;;;;;18.20;64.10;;;;;;4999256;28;1450;-71
2024/04/01 05:28:17;;;;;;;;;;;18.20;64.10;;;;;;5000276;28;1439;-71
2024/04/01 05:30:42;;;;;;;;;;;18.20;64.00;;;;;;4998882;28;1494;-71
2024/04/01 05:33:08;;;;;;;;;;;18.20;64.00;;;;;;4999030;28;1383;-71
2024/04/01 05:35:36;;;;;;;;;;;18.30;64.00;;;;;;5031461;28;1973;-72
2024/04/01 05:38:02;;;;;;;;;;;18.20;64.00;;;;;;5029088;28;1627;-71
2024/04/01 05:40:28;;;;;;;;;;;18.30;64.00;;;;;;4999953;28;1316;-71
2024/04/01 05:42:53;;;;;;;;;;;18.30;63.90;;;;;;5001265;28;1035;-72
2024/04/01 05:45:19;;;;;;;;;;;18.30;63.90;;;;;;4998265;28;1885;-72
2024/04/01 05:47:45;;;;;;;;;;;18.30;63.90;;;;;;5031832;28;1093;-72
2024/04/01 05:50:10;;;;;;;;;;;18.30;63.90;;;;;;4998994;28;1282;-71
2024/04/01 05:52:36;;;;;;;;;;;18.30;63.80;;;;;;5022253;28;1419;-71
2024/04/01 05:55:02;;;;;;;;;;;18.30;63.90;;;;;;5015677;28;1898;-71
2024/04/01 05:57:27;;;;;;;;;;;18.30;63.80;;;;;;5029670;28;1253;-71
2024/04/01 05:59:55;;;;;;;;;;;18.30;63.90;;;;;;5030367;28;1261;-70
2024/04/01 06:02:20;;;;;;;;;;;18.30;63.80;;;;;;5030619;28;1510;-71
2024/04/01 06:04:46;;;;;;;;;;;18.30;63.90;;;;;;5000182;28;1603;-70
2024/04/01 06:07:14;;;;;;;;;;;18.30;63.90;;;;;;4999399;28;1362;-70
2024/04/01 06:09:40;;;;;;;;;;;18.30;63.90;;;;;;5000870;28;1465;-70
2024/04/01 06:12:06;;;;;;;;;;;18.30;63.90;;;;;;5001246;28;1423;-71
2024/04/01 06:14:31;;;;;;;;;;;18.30;63.80;;;;;;5007173;28;1891;-70
2024/04/01 06:16:57;;;;;;;;;;;18.30;63.90;;;;;;5035145;28;1280;-70
2024/04/01 06:19:22;;;;;;;;;;;18.30;63.90;;;;;;5036606;28;1420;-70
2024/04/01 06:21:47;;;;;;;;;;;18.30;63.90;;;;;;5034333;28;1526;-70
2024/04/01 06:24:13;;;;;;;;;;;18.30;63.90;;;;;;5034028;28;1215;-70
2024/04/01 06:26:38;;;;;;;;;;;18.30;64.20;;;;;;5036943;28;1388;-70
2024/04/01 06:29:04;;;;;;;;;;;18.30;63.90;;;;;;5035529;28;1495;-70
2024/04/01 06:31:29;;;;;;;;;;;18.30;63.90;;;;;;5003004;28;1559;-70
2024/04/01 06:33:55;;;;;;;;;;;18.30;64.00;;;;;;5001507;28;1504;-70
2024/04/01 06:36:22;;;;;;;;;;;18.30;63.90;;;;;;5032697;28;1898;-70
2024/04/01 06:38:48;;;;;;;;;;;18.30;64.00;;;;;;5010484;28;1195;-71
2024/04/01 06:41:13;;;;;;;;;;;18.30;64.00;;;;;;5003957;28;939;-71
2024/04/01 06:43:39;;;;;;;;;;;18.30;64.10;;;;;;5006660;28;1336;-71
2024/04/01 06:46:05;;;;;;;;;;;18.30;64.00;;;;;;5036372;28;1488;-71
2024/04/01 06:48:30;;;;;;;;;;;18.30;64.00;;;;;;5001596;28;1341;-71
2024/04/01 06:50:58;;;;;;;;;;;18.30;64.10;;;;;;5002589;28;1673;-71
2024/04/01 06:53:24;;;;;;;;;;;18.30;64.10;;;;;;5031417;28;1612;-71
2024/04/01 06:55:49;;;;;;;;;;;18.20;64.00;;;;;;5003840;28;1894;-71
2024/04/01 06:58:15;;;;;;;;;;;18.20;64.80;;;;;;5003824;28;1378;-71
2024/04/01 07:00:40;;;;;;;;;;;18.20;64.10;;;;;;5033210;28;2139;-72
2024/04/01 07:03:06;;;;;;;;;;;18.20;64.10;;;;;;5032516;28;1214;-71
2024/04/01 07:05:32;;;;;;;;;;;18.20;64.20;;;;;;5032109;28;2145;-71
2024/04/01 07:07:57;;;;;;;;;;;18.20;64.20;;;;;;5029924;28;1013;-71
2024/04/01 07:10:23;;;;;;;;;;;18.20;64.20;;;;;;5017356;28;1432;-71
2024/04/01 07:12:48;;;;;;;;;;;18.20;64.20;;;;;;4998877;28;1443;-71
2024/04/01 07:15:14;;;;;;;;;;;18.20;64.20;;;;;;5023235;28;1902;-71
2024/04/01 07:17:39;;;;;;;;;;;18.20;64.30;;;;;;5002785;28;1391;-71
2024/04/01 07:20:05;;;;;;;;;;;18.20;64.30;;;;;;5035472;28;1512;-71
2024/04/01 07:22:31;;;;;;;;;;;18.20;64.30;;;;;;5033215;28;1543;-70
2024/04/01 07:24:57;;;;;;;;;;;18.20;64.30;;;;;;5030867;28;1560;-71
2024/04/01 07:27:22;;;;;;;;;;;18.20;64.40;;;;;;5007250;28;2068;-70
2024/04/01 07:29:48;;;;;;;;;;;18.20;64.30;;;;;;5002369;28;1556;-71
2024/04/01 07:32:13;;;;;;;;;;;18.20;64.40;;;;;;5034147;28;1373;-71
2024/04/01 07:34:38;;;;;;;;;;;18.20;64.40;;;;;;5000019;28;1973;-71
2024/04/01 07:37:04;;;;;;;;;;;18.20;65.10;;;;;;4997936;28;1451;-71
2024/04/01 07:39:30;;;;;;;;;;;18.20;64.40;;;;;;5030138;28;960;-71
2024/04/01 07:41:55;;;;;;;;;;;18.20;64.40;;;;;;4998234;28;1411;-70
2024/04/01 07:44:21;;;;;;;;;;;18.20;65.20;;;;;;4999494;28;1356;-70
2024/04/01 07:46:46;;;;;;;;;;;18.20;64.50;;;;;;4999269;28;1937;-71
2024/04/01 07:49:12;;;;;;;;;;;18.20;64.50;;;;;;5003957;28;1515;-71
2024/04/01 07:51:37;;;;;;;;;;;18.20;64.50;;;;;;5000742;28;1172;-71
2024/04/01 07:54:03;;;;;;;;;;;18.10;64.50;;;;;;5030061;28;1376;-71
2024/04/01 07:56:29;;;;;;;;;;;18.20;64.50;;;;;;5000140;28;1879;-71
2024/04/01 07:58:54;;;;;;;;;;;18.10;64.50;;;;;;5002060;28;1241;-71
2024/04/01 08:01:20;;;;;;;;;;;18.10;64.50;;;;;;5031116;28;1328;-71
2024/04/01 08:03:45;;;;;;;;;;;18.10;64.50;;;;;;4964227;28;1124885;-71
2024/04/01 08:06:11;;;;;;;;;;;18.10;64.50;;;;;;5031848;28;1541;-71
2024/04/01 08:08:37;;;;;;;;;;;18.10;64.50;;;;;;4999694;28;1336;-71
2024/04/01 08:11:03;;;;;;;;;;;18.10;64.50;;;;;;5009052;28;1176;-71
2024/04/01 08:13:28;;;;;;;;;;;18.10;64.60;;;;;;5029382;28;1851;-71
2024/04/01 08:16:00;;;;;;;;;;;18.10;64.60;;;;;;4999680;28;1910;-71
2024/04/01 08:18:25;;;;;;;;;;;18.10;64.50;;;;;;5021992;28;1468;-71
2024/04/01 08:20:51;;;;;;;;;;;18.20;64.60;;;;;;5031916;28;1359;-71
2024/04/01 08:23:16;;;;;;;;;;;18.10;64.50;;;;;;4999161;28;1963;-71
2024/04/01 08:25:42;;;;;;;;;;;18.20;64.50;;;;;;4998365;28;1777;-72
2024/04/01 08:28:07;;;;;;;;;;;18.10;64.50;;;;;;5000415;28;1256;-71
2024/04/01 08:30:33;;;;;;;;;;;18.10;64.40;;;;;;4998804;28;1636;-71
2024/04/01 08:32:58;;;;;;;;;;;18.20;64.50;;;;;;5002050;28;1336;-71
2024/04/01 08:35:24;;;;;;;;;;;18.20;64.50;;;;;;5032915;28;1967;-71
2024/04/01 08:37:49;;;;;;;;;;;18.20;64.50;;;;;;5031101;28;1489;-71
2024/04/01 08:40:15;;;;;;;;;;;18.20;64.50;;;;;;5000023;28;1529;-71
2024/04/01 08:42:41;;;;;;;;;;;18.20;64.50;;;;;;5030771;28;1469;-71
2024/04/01 08:45:07;;;;;;;;;;;18.20;64.40;;;;;;5034474;28;1536;-71
2024/04/01 08:47:33;;;;;;;;;;;18.20;64.40;;;;;;5000401;28;1607;-71
2024/04/01 08:50:03;;;;;;;;;;;18.20;64.40;;;;;;5031634;28;1045;-71
2024/04/01 08:52:28;;;;;;;;;;;18.20;64.40;;;;;;5001864;28;1634;-71
2024/04/01 08:54:54;;;;;;;;;;;18.20;64.50;;;;;;5031945;28;1967;-71
2024/04/01 08:57:19;;;;;;;;;;;18.20;64.50;;;;;;4997097;28;1385;-71
2024/04/01 08:59:45;;;;;;;;;;;18.20;64.50;;;;;;5013962;28;1487;-72
2024/04/01 09:02:10;;;;;;;;;;;18.20;64.50;;;;;;5032237;28;1490;-72
2024/04/01 09:04:36;;;;;;;;;;;18.20;64.50;;;;;;5021583;28;1721;-71
2024/04/01 09:07:01;;;;;;;;;;;18.10;64.80;;;;;;5035038;28;1517;-72
2024/04/01 09:09:27;;;;;;;;;;;18.20;64.50;;;;;;5015953;28;1523;-72
2024/04/01 09:11:52;;;;;;;;;;;18.20;64.50;;;;;;5000248;28;1187;-71
2024/04/01 09:14:18;;;;;;;;;;;18.20;64.50;;;;;;5031123;28;1372;-72
2024/04/01 09:16:43;;;;;;;;;;;18.10;64.50;;;;;;5032555;28;2005;-72
2024/04/01 09:19:09;;;;;;;;;;;18.10;64.50;;;;;;5029234;28;1471;-72
2024/04/01 09:21:35;;;;;;;;;;;18.10;64.50;;;;;;5030842;28;1631;-71
2024/04/01 09:24:00;;;;;;;;;;;18.10;64.60;;;;;;4999127;28;1293;-72
2024/04/01 09:26:29;;;;;;;;;;;18.10;64.60;;;;;;4999819;28;1396;-72
2024/04/01 09:28:55;;;;;;;;;;;18.10;64.60;;;;;;5031573;28;1481;-71
2024/04/01 09:31:20;;;;;;;;;;;18.10;64.60;;;;;;5033857;28;1598;-72
2024/04/01 09:33:46;;;;;;;;;;;18.10;64.60;;;;;;5031458;28;1331;-72
2024/04/01 09:36:11;;;;;;;;;;;18.10;64.60;;;;;;4998539;28;1915;-72
2024/04/01 09:38:37;;;;;;;;;;;18.10;64.60;;;;;;5016159;28;1223;-72
2024/04/01 09:41:02;;;;;;;;;;;18.10;64.60;;;;;;5030814;28;947;-72
2024/04/01 09:43:31;;;;;;;;;;;18.10;64.60;;;;;;5002969;28;1271;-72
2024/04/01 09:45:57;;;;;;;;;;;18.10;64.60;;;;;;4999850;28;1351;-71
2024/04/01 09:48:23;;;;;;;;;;;18.10;64.70;;;;;;5017088;28;1195;-72
2024/04/01 09:50:49;;;;;;;;;;;18.10;64.70;;;;;;5001081;28;920;-71
2024/04/01 09:53:14;;;;;;;;;;;18.10;64.70;;;;;;5000444;28;1040;-71
2024/04/01 09:55:48;;;;;;;;;;;18.10;64.70;;;;;;4981882;28;1903;-72
2024/04/01 09:58:34;;;;;;;;;;;18.10;64.70;;;;;;5030144;28;1329;-72
2024/04/01 10:01:00;;;;;;;;;;;18.10;64.80;;;;;;5000206;28;1340;-71
2024/04/01 10:03:44;;;;;;;;;;;18.10;64.80;;;;;;5000029;28;1341;-71
2024/04/01 10:06:32;;;;;;;;;;;18.10;64.80;;;;;;4998691;28;1505;-71
2024/04/01 10:09:19;;;;;;;;;;;18.10;64.80;;;;;;4995564;28;1916;-71
2024/04/01 10:12:05;;;;;;;;;;;18.10;64.80;;;;;;5015668;28;1294;-72
2024/04/01 10:14:40;;;;;;;;;;;18.10;64.90;;;;;;5027878;28;1934;-72
2024/04/01 10:17:14;;;;;;;;;;;18.10;64.90;;;;;;4996768;28;1414;-72
2024/04/01 10:19:48;;;;;;;;;;;18.10;64.80;;;;;;4998241;28;1462;-71
2024/04/01 10:22:20;;;;;;;;;;;18.10;64.90;;;;;;4997922;28;1224;-71
2024/04/01 10:25:04;;;;;;;;;;;18.00;64.80;;;;;;4997945;28;1242;-71
2024/04/01 10:27:35;;;;;;;;;;;18.10;64.90;;;;;;4999078;28;1783;-71
2024/04/01 10:30:01;;;;;;;;;;;18.00;64.90;;;;;;4997441;28;1401;-71
2024/04/01 10:32:45;;;;;;;;;;;18.00;64.90;;;;;;5000035;28;1637;-71
2024/04/01 10:35:29;;;;;;;;;;;18.00;64.90;;;;;;4998428;28;1988;-71
2024/04/01 10:38:01;;;;;;;;;;;18.10;65.00;;;;;;4998141;28;2459;-72
2024/04/01 10:40:26;;;;;;;;;;;18.00;64.90;;;;;;4996952;28;1319;-71
2024/04/01 10:43:10;;;;;;;;;;;18.10;65.00;;;;;;4998855;28;1573;-71
2024/04/01 10:45:57;;;;;;;;;;;18.00;64.90;;;;;;5030129;28;1434;-71
2024/04/01 10:48:27;;;;;;;;;;;18.00;65.00;;;;;;5030491;28;1463;-71
2024/04/01 10:50:59;;;;;;;;;;;18.00;65.00;;;;;;5028818;28;1640;-71
2024/04/01 10:53:44;;;;;;;;;;;18.00;65.00;;;;;;5029189;28;1680;-71
2024/04/01 10:56:45;;;;;;;;;;;18.00;65.00;;;;;;5030921;28;1894;-71
2024/04/01 10:59:17;;;;;;;;;;;18.00;65.00;;;;;;4980466;28;1632;-71
2024/04/01 11:01:45;;;;;;;;;;;18.00;65.00;;;;;;4999642;28;1367;-71
2024/04/01 11:04:16;;;;;;;;;;;18.00;65.00;;;;;;5003221;28;1508;-71
2024/04/01 11:06:52;;;;;;;;;;;18.00;65.00;;;;;;5003002;28;1393;-72
2024/04/01 11:09:24;;;;;;;;;;;18.00;65.10;;;;;;5030622;28;2258;-72
2024/04/01 11:11:55;;;;;;;;;;;18.00;65.10;;;;;;5032300;28;1359;-73
2024/04/01 11:14:21;;;;;;;;;;;18.00;65.80;;;;;;5022019;28;1262;-72
2024/04/01 11:16:48;;;;;;;;;;;18.00;65.10;;;;;;5034175;28;1910;-72
2024/04/01 11:19:29;;;;;;;;;;;18.00;65.10;;;;;;5033482;28;1999;-72
2024/04/01 11:21:57;;;;;;;;;;;18.00;65.10;;;;;;5004272;28;1131;-73
2024/04/01 11:24:22;;;;;;;;;;;18.00;65.10;;;;;;5005574;28;1251;-72
2024/04/01 11:26:54;;;;;;;;;;;18.00;65.10;;;;;;5000177;28;1304;-72
2024/04/01 11:29:39;;;;;;;;;;;18.00;65.10;;;;;;5036316;28;1863;-73
2024/04/01 11:32:10;;;;;;;;;;;18.00;65.10;;;;;;4997630;28;1459;-72
2024/04/01 11:34:35;;;;;;;;;;;18.00;65.20;;;;;;5032611;28;1910;-72
2024/04/01 11:37:04;;;;;;;;;;;18.00;65.20;;;;;;5033838;28;1358;-72
2024/04/01 11:39:29;;;;;;;;;;;18.00;65.20;;;;;;5004257;28;1516;-72
2024/04/01 11:41:55;;;;;;;;;;;18.00;65.20;;;;;;5002464;28;1262;-72
2024/04/01 11:44:22;;;;;;;;;;;18.00;65.20;;;;;;5034525;28;1524;-72
2024/04/01 11:46:50;;;;;;;;;;;18.00;65.20;;;;;;5034699;28;1714;-72
2024/04/01 11:49:15;;;;;;;;;;;18.00;65.50;;;;;;5032055;28;2012;-72
2024/04/01 11:51:41;;;;;;;;;;;18.00;65.20;;;;;;5030149;28;1354;-72
2024/04/01 11:54:06;;;;;;;;;;;18.00;65.20;;;;;;5001684;28;1287;-72
2024/04/01 11:56:38;;;;;;;;;;;17.90;65.20;;;;;;5033206;28;1969;-73
2024/04/01 11:59:06;;;;;;;;;;;17.90;65.20;;;;;;5001421;28;1549;-73
2024/04/01 12:01:34;;;;;;;;;;;18.00;65.20;;;;;;5033757;28;2250;-73
2024/04/01 12:04:01;;;;;;;;;;;18.00;66.00;;;;;;5031562;28;1358;-73
2024/04/01 12:06:28;;;;;;;;;;;18.00;65.20;;;;;;5032040;28;1524;-72
2024/04/01 12:08:53;;;;;;;;;;;18.00;65.30;;;;;;5032478;28;1368;-72
2024/04/01 12:11:19;;;;;;;;;;;18.00;65.30;;;;;;5028980;28;1383;-72
2024/04/01 12:13:46;;;;;;;;;;;17.90;65.20;;;;;;5008580;28;1553;-72
2024/04/01 12:16:12;;;;;;;;;;;17.90;65.20;;;;;;5033829;28;1914;-72
2024/04/01 12:18:44;;;;;;;;;;;17.90;65.30;;;;;;5030802;28;1480;-72
2024/04/01 12:21:09;;;;;;;;;;;18.00;65.30;;;;;;5001687;28;1311;-71
2024/04/01 12:23:35;;;;;;;;;;;17.90;65.30;;;;;;5033461;28;1285;-72
2024/04/01 12:26:04;;;;;;;;;;;18.00;65.30;;;;;;5031775;28;1595;-71
2024/04/01 12:28:30;;;;;;;;;;;17.90;65.30;;;;;;5032702;28;1569;-71
2024/04/01 12:30:58;;;;;;;;;;;18.00;65.40;;;;;;5001379;28;1442;-72
2024/04/01 12:33:26;;;;;;;;;;;17.90;65.30;;;;;;5032055;28;1264;-71
2024/04/01 12:35:52;;;;;;;;;;;17.90;65.30;;;;;;5019427;28;1968;-71
2024/04/01 12:38:17;;;;;;;;;;;17.90;65.30;;;;;;5032257;28;1183;-72
2024/04/01 12:40:43;;;;;;;;;;;17.90;65.30;;;;;;5030102;28;1381;-72
2024/04/01 12:43:15;;;;;;;;;;;17.90;65.30;;;;;;5003106;28;1369;-71
2024/04/01 12:45:44;;;;;;;;;;;18.00;65.40;;;;;;5033963;28;1355;-72
2024/04/01 12:48:13;;;;;;;;;;;17.90;65.30;;;;;;4998974;28;1449;-71
2024/04/01 12:50:50;;;;;;;;;;;18.00;65.40;;;;;;4998239;28;2072;-71
2024/04/01 12:53:25;;;;;;;;;;;18.00;65.40;;;;;;5028924;28;1899;-72
2024/04/01 12:56:10;;;;;;;;;;;18.00;65.40;;;;;;4998607;28;1968;-71
2024/04/01 12:58:51;;;;;;;;;;;17.90;65.40;;;;;;4999981;28;1346;-72
2024/04/01 13:01:26;;;;;;;;;;;18.00;65.40;;;;;;5031745;28;1242;-71
2024/04/01 13:03:54;;;;;;;;;;;18.00;65.40;;;;;;5001428;28;1881;-71
2024/04/01 13:06:25;;;;;;;;;;;17.90;65.40;;;;;;5000002;28;1371;-71
2024/04/01 13:08:50;;;;;;;;;;;18.00;65.50;;;;;;5030961;28;1899;-71
2024/04/01 13:11:39;;;;;;;;;;;17.90;65.40;;;;;;5001228;28;1432;-71
2024/04/01 13:14:04;;;;;;;;;;;17.90;65.40;;;;;;5001170;28;1502;-71
2024/04/01 13:16:32;;;;;;;;;;;18.00;65.50;;;;;;4998797;28;1959;-72
2024/04/01 13:19:07;;;;;;;;;;;17.90;65.50;;;;;;5031119;28;1461;-72
2024/04/01 13:21:36;;;;;;;;;;;17.90;65.50;;;;;;5030740;28;1824;-71
2024/04/01 13:24:09;;;;;;;;;;;17.90;65.40;;;;;;4999329;28;1951;-71
2024/04/01 13:26:44;;;;;;;;;;;17.90;65.40;;;;;;4999179;28;1822;-71
2024/04/01 13:29:10;;;;;;;;;;;17.90;65.50;;;;;;5030113;28;1308;-71
2024/04/01 13:31:42;;;;;;;;;;;17.90;65.50;;;;;;5029598;28;1503;-70
2024/04/01 13:34:13;;;;;;;;;;;17.90;65.50;;;;;;5031821;28;1472;-71
2024/04/01 13:36:54;;;;;;;;;;;17.90;65.50;;;;;;4999818;28;1970;-71
2024/04/01 13:39:20;;;;;;;;;;;17.90;65.50;;;;;;4998579;28;1495;-70
2024/04/01 13:42:05;;;;;;;;;;;17.90;65.50;;;;;;4997522;28;1627;-70
2024/04/01 13:44:49;;;;;;;;;;;17.90;65.50;;;;;;4998684;28;1351;-71
2024/04/01 13:47:23;;;;;;;;;;;17.90;65.50;;;;;;5031535;28;1311;-71
2024/04/01 13:50:04;;;;;;;;;;;17.90;65.40;;;;;;5001073;28;1978;-72
2024/04/01 13:52:35;;;;;;;;;;;18.00;65.50;;;;;;4994954;28;1432;-72
2024/04/01 13:55:03;;;;;;;;;;;17.90;65.40;;;;;;5005536;28;1898;-71
2024/04/01 13:57:34;;;;;;;;;;;17.90;65.30;;;;;;4996192;28;1186;-71
2024/04/01 14:00:04;;;;;;;;;;;18.00;65.30;;;;;;5027809;28;1653;-70
2024/04/01 14:02:43;;;;;;;;;;;18.00;65.20;;;;;;5029008;28;1384;-70
2024/04/01 14:05:28;;;;;;;;;;;18.00;65.10;;;;;;5012733;28;1402;-71
2024/04/01 14:08:09;;;;;;;;;;;18.00;65.10;;;;;;4988148;28;1483;-70
2024/04/01 14:10:37;;;;;;;;;;;18.10;65.10;;;;;;5031142;28;1419;-70
2024/04/01 14:13:15;;;;;;;;;;;18.10;65.00;;;;;;4997671;28;1343;-71
2024/04/01 14:15:59;;;;;;;;;;;18.10;65.00;;;;;;4999753;28;1894;-70
2024/04/01 14:18:43;;;;;;;;;;;18.10;65.60;;;;;;5030902;28;1621;-71
2024/04/01 14:21:08;;;;;;;;;;;18.10;64.80;;;;;;5001190;28;1377;-70
2024/04/01 14:23:37;;;;;;;;;;;18.10;64.70;;;;;;5030618;28;1827;-70
2024/04/01 14:26:03;;;;;;;;;;;18.20;64.80;;;;;;5029714;28;1457;-71
2024/04/01 14:28:28;;;;;;;;;;;18.20;64.70;;;;;;5027818;28;1555;-70
2024/04/01 14:30:54;;;;;;;;;;;18.20;64.60;;;;;;5028392;28;1721;-70
2024/04/01 14:33:19;;;;;;;;;;;18.20;64.50;;;;;;4998042;28;1568;-70
2024/04/01 14:35:45;;;;;;;;;;;18.20;64.50;;;;;;5020516;28;1906;-70